createdAt,value
2024-05-09T00:00:18.675Z,100.00
2024-05-09T00:02:52.960Z,100.00
2024-05-09T00:05:19.532Z,100.00
2024-05-09T00:07:46.180Z,100.00
2024-05-09T00:10:22.246Z,100.00
2024-05-09T00:12:55.548Z,100.00
2024-05-09T00:15:22.058Z,100.00
2024-05-09T00:17:48.660Z,100.00
2024-05-09T00:20:20.503Z,100.00
2024-05-09T00:22:51.256Z,100.00
2024-05-09T00:25:17.906Z,100.00
2024-05-09T00:27:44.386Z,100.00
2024-05-09T00:30:17.443Z,100.00
2024-05-09T00:32:48.189Z,100.00
2024-05-09T00:35:14.906Z,100.00
2024-05-09T00:37:41.409Z,100.00
2024-05-09T00:40:15.090Z,100.00
2024-05-09T00:42:48.917Z,100.00
2024-05-09T00:45:15.540Z,100.00
2024-05-09T00:47:43.386Z,100.00
2024-05-09T00:50:15.963Z,100.00
2024-05-09T00:52:49.246Z,100.00
2024-05-09T00:55:17.009Z,100.00
2024-05-09T00:57:44.614Z,100.00
2024-05-09T01:00:22.394Z,100.00
2024-05-09T01:02:57.033Z,100.00
2024-05-09T01:05:23.650Z,100.00
2024-05-09T01:07:50.223Z,100.00
2024-05-09T01:10:21.297Z,100.00
2024-05-09T01:12:54.212Z,100.00
2024-05-09T01:15:20.697Z,100.00
2024-05-09T01:17:47.369Z,100.00
2024-05-09T01:20:20.162Z,100.00
2024-05-09T01:22:54.220Z,100.00
2024-05-09T01:25:20.768Z,100.00
2024-05-09T01:27:47.261Z,100.00
2024-05-09T01:30:17.438Z,100.00
2024-05-09T01:32:47.944Z,100.00
2024-05-09T01:35:14.567Z,100.00
2024-05-09T01:37:41.191Z,100.00
2024-05-09T01:40:12.293Z,100.00
2024-05-09T01:42:41.871Z,100.00
2024-05-09T01:45:09.166Z,100.00
2024-05-09T01:47:36.106Z,100.00
2024-05-09T01:50:05.103Z,100.00
2024-05-09T01:52:38.470Z,100.00
2024-05-09T01:55:07.226Z,100.00
2024-05-09T01:57:33.922Z,100.00
2024-05-09T02:00:00.530Z,100.00
2024-05-09T02:02:27.148Z,100.00
2024-05-09T02:04:53.896Z,100.00
2024-05-09T02:07:20.581Z,100.00
2024-05-09T02:09:47.092Z,100.00
2024-05-09T02:12:13.684Z,100.00
2024-05-09T02:14:40.441Z,100.00
2024-05-09T02:17:07.106Z,100.00
2024-05-09T02:19:33.777Z,100.00
2024-05-09T02:22:00.381Z,100.00
2024-05-09T02:24:27.070Z,100.00
2024-05-09T02:26:53.572Z,100.00
2024-05-09T02:29:20.212Z,100.00
2024-05-09T02:31:46.877Z,100.00
2024-05-09T02:34:13.557Z,100.00
2024-05-09T02:36:40.244Z,100.00
2024-05-09T02:39:06.780Z,100.00
2024-05-09T02:41:33.378Z,100.00
2024-05-09T02:44:00.130Z,100.00
2024-05-09T02:46:26.678Z,100.00
2024-05-09T02:48:53.322Z,100.00
2024-05-09T02:51:19.969Z,100.00
2024-05-09T02:53:46.508Z,100.00
2024-05-09T02:56:13.030Z,100.00
2024-05-09T02:58:39.672Z,100.00
2024-05-09T03:01:06.239Z,100.00
2024-05-09T03:03:33.024Z,100.00
2024-05-09T03:06:01.342Z,100.00
2024-05-09T03:08:28.022Z,100.00
2024-05-09T03:10:54.634Z,100.00
2024-05-09T03:13:21.190Z,100.00
2024-05-09T03:15:47.735Z,100.00
2024-05-09T03:18:15.285Z,100.00
2024-05-09T03:20:44.192Z,100.00
2024-05-09T03:23:11.090Z,100.00
2024-05-09T03:25:38.494Z,100.00
2024-05-09T03:28:05.593Z,100.00
2024-05-09T03:30:39.915Z,100.00
2024-05-09T03:33:20.229Z,100.00
2024-05-09T03:35:49.037Z,100.00
2024-05-09T03:38:16.183Z,100.00
2024-05-09T03:40:47.235Z,100.00
2024-05-09T03:43:14.108Z,100.00
2024-05-09T03:45:40.742Z,100.00
2024-05-09T03:48:08.234Z,100.00
2024-05-09T03:50:36.316Z,100.00
2024-05-09T03:53:03.883Z,100.00
2024-05-09T03:55:30.935Z,100.00
2024-05-09T03:57:57.473Z,100.00
2024-05-09T04:00:31.318Z,100.00
2024-05-09T04:03:05.531Z,100.00
2024-05-09T04:05:33.198Z,100.00
2024-05-09T04:07:59.859Z,100.00
2024-05-09T04:10:33.567Z,100.00
2024-05-09T04:13:01.860Z,100.00
2024-05-09T04:15:28.531Z,100.00
2024-05-09T04:17:55.243Z,100.00
2024-05-09T04:20:32.990Z,100.00
2024-05-09T04:23:05.995Z,100.00
2024-05-09T04:25:32.765Z,100.00
2024-05-09T04:27:59.468Z,100.00
2024-05-09T04:30:34.800Z,100.00
2024-05-09T04:33:06.077Z,100.00
2024-05-09T04:35:33.204Z,100.00
2024-05-09T04:38:00.462Z,100.00
2024-05-09T04:40:33.147Z,100.00
2024-05-09T04:43:03.155Z,100.00
2024-05-09T04:45:29.964Z,100.00
2024-05-09T04:47:56.750Z,100.00
2024-05-09T04:50:32.702Z,100.00
2024-05-09T04:53:03.447Z,100.00
2024-05-09T04:55:30.432Z,100.00
2024-05-09T04:57:57.032Z,100.00
2024-05-09T05:00:32.377Z,100.00
2024-05-09T05:03:06.903Z,100.00
2024-05-09T05:05:34.819Z,100.00
2024-05-09T05:08:01.413Z,100.00
2024-05-09T05:10:33.957Z,100.00
2024-05-09T05:13:17.858Z,100.00
2024-05-09T05:15:46.385Z,100.00
2024-05-09T05:18:14.904Z,100.00
2024-05-09T05:20:41.979Z,100.00
2024-05-09T05:23:16.386Z,100.00
2024-05-09T05:25:43.247Z,100.00
2024-05-09T05:28:10.750Z,100.00
2024-05-09T05:30:38.189Z,100.00
2024-05-09T05:33:06.136Z,100.00
2024-05-09T05:35:33.714Z,100.00
2024-05-09T05:38:00.508Z,100.00
2024-05-09T05:40:33.456Z,100.00
2024-05-09T05:43:11.034Z,100.00
2024-05-09T05:45:38.962Z,100.00
2024-05-09T05:48:07.378Z,100.00
2024-05-09T05:50:37.154Z,100.00
2024-05-09T05:53:09.364Z,100.00
2024-05-09T05:55:37.670Z,100.00
2024-05-09T05:58:04.450Z,100.00
2024-05-09T06:00:38.171Z,100.00
2024-05-09T06:03:07.177Z,100.00
2024-05-09T06:05:35.117Z,100.00
2024-05-09T06:08:01.912Z,100.00
2024-05-09T06:10:35.249Z,100.00
2024-05-09T06:13:05.618Z,100.00
2024-05-09T06:15:32.169Z,100.00
2024-05-09T06:17:59.252Z,100.00
2024-05-09T06:20:34.628Z,100.00
2024-05-09T06:23:04.885Z,100.00
2024-05-09T06:25:31.826Z,100.00
2024-05-09T06:28:00.096Z,100.00
2024-05-09T06:30:35.303Z,100.00
2024-05-09T06:33:06.795Z,100.00
2024-05-09T06:35:34.058Z,100.00
2024-05-09T06:38:00.966Z,100.00
2024-05-09T06:40:36.248Z,100.00
2024-05-09T06:43:10.768Z,100.00
2024-05-09T06:45:39.456Z,100.00
2024-05-09T06:48:06.913Z,100.00
2024-05-09T06:50:37.612Z,100.00
2024-05-09T06:53:05.746Z,100.00
2024-05-09T06:55:32.305Z,100.00
2024-05-09T06:57:59.004Z,100.00
2024-05-09T07:00:34.442Z,100.00
2024-05-09T07:03:09.095Z,100.00
2024-05-09T07:05:36.138Z,100.00
2024-05-09T07:08:03.640Z,100.00
2024-05-09T07:10:34.837Z,100.00
2024-05-09T07:13:02.555Z,100.00
2024-05-09T07:15:29.083Z,100.00
2024-05-09T07:17:55.779Z,100.00
2024-05-09T07:20:31.755Z,100.00
2024-05-09T07:23:03.045Z,100.00
2024-05-09T07:25:30.031Z,100.00
2024-05-09T07:27:56.751Z,100.00
2024-05-09T07:30:32.531Z,100.00
2024-05-09T07:33:01.414Z,100.00
2024-05-09T07:35:28.814Z,100.00
2024-05-09T07:37:55.501Z,100.00
2024-05-09T07:40:31.605Z,100.00
2024-05-09T07:43:05.383Z,100.00
2024-05-09T07:53:36.024Z,100.00
2024-05-09T07:55:47.246Z,100.00
2024-05-09T07:58:13.784Z,100.00
2024-05-09T08:00:40.450Z,100.00
2024-05-09T08:03:07.251Z,100.00
2024-05-09T08:05:33.970Z,100.00
2024-05-09T08:08:00.656Z,100.00
2024-05-09T08:10:29.065Z,100.00
2024-05-09T08:12:56.038Z,100.00
2024-05-09T08:15:22.636Z,100.00
2024-05-09T08:17:49.351Z,100.00
2024-05-09T08:20:26.456Z,100.00
2024-05-09T08:22:57.335Z,100.00
2024-05-09T08:25:23.913Z,100.00
2024-05-09T08:27:50.477Z,100.00
2024-05-09T08:30:24.665Z,100.00
2024-05-09T08:32:56.251Z,100.00
2024-05-09T08:35:22.872Z,100.00
2024-05-09T08:37:49.982Z,100.00
2024-05-09T08:40:23.420Z,100.00
2024-05-09T08:42:56.122Z,100.00
2024-05-09T08:45:22.751Z,100.00
2024-05-09T08:47:52.754Z,100.00
2024-05-09T08:50:31.491Z,100.00
2024-05-09T08:53:04.348Z,100.00
2024-05-09T08:55:31.047Z,100.00
2024-05-09T08:57:59.162Z,100.00
2024-05-09T09:00:35.613Z,100.00
2024-05-09T09:03:07.643Z,100.00
2024-05-09T09:05:38.066Z,100.00
2024-05-09T09:08:07.572Z,100.00
2024-05-09T09:10:35.179Z,100.00
2024-05-09T09:13:04.682Z,100.00
2024-05-09T09:15:31.937Z,100.00
2024-05-09T09:18:00.875Z,100.00
2024-05-09T09:20:35.391Z,100.00
2024-05-09T09:23:03.667Z,100.00
2024-05-09T09:25:30.397Z,100.00
2024-05-09T09:27:58.648Z,100.00
2024-05-09T09:30:35.008Z,100.00
2024-05-09T09:33:05.101Z,100.00
2024-05-09T09:35:32.632Z,100.00
2024-05-09T09:38:02.801Z,100.00
2024-05-09T09:40:36.228Z,100.00
2024-05-09T09:43:13.830Z,100.00
2024-05-09T09:45:43.660Z,100.00
2024-05-09T09:48:12.000Z,100.00
2024-05-09T09:50:40.052Z,100.00
2024-05-09T09:53:08.154Z,100.00
2024-05-09T09:55:35.571Z,100.00
2024-05-09T09:58:04.253Z,100.00
2024-05-09T10:00:33.599Z,100.00
2024-05-09T10:03:01.608Z,100.00
2024-05-09T10:05:29.098Z,97.44
2024-05-09T10:07:57.365Z,88.33
2024-05-09T10:10:31.802Z,82.42
2024-05-09T10:13:08.953Z,67.91
2024-05-09T10:15:54.599Z,61.74
2024-05-09T10:18:27.280Z,62.63
2024-05-09T10:20:56.188Z,59.44
2024-05-09T10:23:27.529Z,59.52
2024-05-09T10:26:01.045Z,59.28
2024-05-09T10:28:32.352Z,54.64
2024-05-09T10:31:13.269Z,55.52
2024-05-09T10:33:46.138Z,57.08
2024-05-09T10:36:26.380Z,56.29
2024-05-09T10:38:54.240Z,54.51
2024-05-09T10:41:21.942Z,52.51
2024-05-09T10:43:48.933Z,49.58
2024-05-09T10:46:16.815Z,51.43
2024-05-09T10:48:44.297Z,49.58
2024-05-09T10:51:11.613Z,52.37
2024-05-09T10:53:46.103Z,49.86
2024-05-09T10:56:17.029Z,51.79
2024-05-09T10:58:44.053Z,52.46
2024-05-09T11:01:10.983Z,50.52
2024-05-09T11:03:39.095Z,52.53
2024-05-09T11:06:06.530Z,53.21
2024-05-09T11:08:34.652Z,51.80
2024-05-09T11:11:03.065Z,53.43
2024-05-09T11:13:31.556Z,52.31
2024-05-09T11:15:59.286Z,52.46
2024-05-09T11:18:30.642Z,52.02
2024-05-09T11:21:00.295Z,53.45
2024-05-09T11:23:30.010Z,52.10
2024-05-09T11:25:58.249Z,50.94
2024-05-09T11:28:26.985Z,50.06
2024-05-09T11:31:05.287Z,50.15
2024-05-09T11:33:32.045Z,50.64
2024-05-09T11:35:58.696Z,52.13
2024-05-09T11:38:25.231Z,50.96
2024-05-09T11:40:51.845Z,50.74
2024-05-09T11:43:18.531Z,50.68
2024-05-09T11:45:45.146Z,48.52
2024-05-09T11:48:11.814Z,47.91
2024-05-09T11:50:38.949Z,49.97
2024-05-09T11:53:06.384Z,47.71
2024-05-09T11:55:36.685Z,46.35
2024-05-09T11:58:04.237Z,47.65
2024-05-09T12:00:36.648Z,46.74
2024-05-09T12:03:05.696Z,46.77
2024-05-09T12:05:34.003Z,46.01
2024-05-09T12:08:01.353Z,45.25
2024-05-09T12:10:33.287Z,46.87
2024-05-09T12:13:03.494Z,45.51
2024-05-09T12:15:31.635Z,43.41
2024-05-09T12:18:00.246Z,44.54
2024-05-09T12:20:36.179Z,44.85
2024-05-09T12:23:06.063Z,42.92
2024-05-09T12:25:32.809Z,44.16
2024-05-09T12:27:59.575Z,45.28
2024-05-09T12:30:35.311Z,45.06
2024-05-09T12:33:05.832Z,44.63
2024-05-09T12:35:32.692Z,44.57
2024-05-09T12:37:59.243Z,44.48
2024-05-09T12:40:34.409Z,44.95
2024-05-09T12:43:04.841Z,44.03
2024-05-09T12:45:31.870Z,44.16
2024-05-09T12:47:58.696Z,44.84
2024-05-09T12:50:31.816Z,43.82
2024-05-09T12:53:00.352Z,43.53
2024-05-09T12:55:28.116Z,43.68
2024-05-09T12:57:55.304Z,42.63
2024-05-09T13:00:28.172Z,43.05
2024-05-09T13:03:00.344Z,43.84
2024-05-09T13:05:27.375Z,42.84
2024-05-09T13:07:54.116Z,41.80
2024-05-09T13:10:28.999Z,43.72
2024-05-09T13:12:59.269Z,43.13
2024-05-09T13:15:25.929Z,43.49
2024-05-09T13:17:52.882Z,43.46
2024-05-09T13:20:28.881Z,41.79
2024-05-09T13:23:01.867Z,42.87
2024-05-09T13:25:28.477Z,43.31
2024-05-09T13:27:55.860Z,43.58
2024-05-09T13:30:29.605Z,42.17
2024-05-09T13:33:05.262Z,42.88
2024-05-09T13:35:34.196Z,41.84
2024-05-09T13:38:02.117Z,40.75
2024-05-09T13:40:33.666Z,41.28
2024-05-09T13:43:03.137Z,42.45
2024-05-09T13:45:29.930Z,41.03
2024-05-09T13:47:56.984Z,40.34
2024-05-09T13:50:31.603Z,41.84
2024-05-09T13:53:02.088Z,41.56
2024-05-09T13:55:28.795Z,41.21
2024-05-09T13:57:55.942Z,42.44
2024-05-09T14:00:32.489Z,41.92
2024-05-09T14:03:09.804Z,41.55
2024-05-09T14:05:36.668Z,40.01
2024-05-09T14:08:03.433Z,41.37
2024-05-09T14:10:31.920Z,43.41
2024-05-09T14:12:59.697Z,43.63
2024-05-09T14:15:26.275Z,44.62
2024-05-09T14:17:53.305Z,45.06
2024-05-09T14:20:29.894Z,44.87
2024-05-09T14:22:58.843Z,44.81
2024-05-09T14:25:28.201Z,46.02
2024-05-09T14:27:55.051Z,45.92
2024-05-09T14:30:30.324Z,46.68
2024-05-09T14:33:02.767Z,47.04
2024-05-09T14:35:29.424Z,46.79
2024-05-09T14:37:55.992Z,45.60
2024-05-09T14:40:35.737Z,46.26
2024-05-09T14:43:07.700Z,45.96
2024-05-09T14:45:34.629Z,45.69
2024-05-09T14:48:02.234Z,45.08
2024-05-09T14:50:35.461Z,45.53
2024-05-09T14:53:06.194Z,45.11
2024-05-09T14:55:35.767Z,46.34
2024-05-09T14:58:03.399Z,45.38
2024-05-09T15:00:35.613Z,42.35
2024-05-09T15:03:03.991Z,43.96
2024-05-09T15:05:30.699Z,44.24
2024-05-09T15:07:58.029Z,44.51
2024-05-09T15:10:33.711Z,44.41
2024-05-09T15:13:02.603Z,45.60
2024-05-09T15:15:29.345Z,44.80
2024-05-09T15:17:56.130Z,45.13
2024-05-09T15:20:31.031Z,45.72
2024-05-09T15:23:02.102Z,46.40
2024-05-09T15:25:28.884Z,47.23
2024-05-09T15:27:55.577Z,45.94
2024-05-09T15:30:29.584Z,46.83
2024-05-09T15:32:58.500Z,44.78
2024-05-09T15:35:25.083Z,43.86
2024-05-09T15:37:51.724Z,44.82
2024-05-09T15:40:26.433Z,42.94
2024-05-09T15:43:02.318Z,43.13
2024-05-09T15:45:29.296Z,43.15
2024-05-09T15:47:57.241Z,42.99
2024-05-09T15:50:35.330Z,43.97
2024-05-09T15:53:06.458Z,44.33
2024-05-09T15:55:34.395Z,43.91
2024-05-09T15:58:02.302Z,44.19
2024-05-09T16:00:37.318Z,43.55
2024-05-09T16:03:07.959Z,43.74
2024-05-09T16:05:34.728Z,42.19
2024-05-09T16:08:01.407Z,42.70
2024-05-09T16:10:32.661Z,42.69
2024-05-09T16:13:01.253Z,42.27
2024-05-09T16:15:27.998Z,43.55
2024-05-09T16:17:55.311Z,42.68
2024-05-09T16:20:33.919Z,42.36
2024-05-09T16:23:06.376Z,42.33
2024-05-09T16:25:33.219Z,42.60
2024-05-09T16:28:00.124Z,42.43
2024-05-09T16:30:33.907Z,43.18
2024-05-09T16:33:03.382Z,42.90
2024-05-09T16:35:30.530Z,42.83
2024-05-09T16:37:57.303Z,41.90
2024-05-09T16:40:33.051Z,42.75
2024-05-09T16:43:04.835Z,42.68
2024-05-09T16:45:31.945Z,42.78
2024-05-09T16:48:00.072Z,44.57
2024-05-09T16:50:32.383Z,44.81
2024-05-09T16:53:01.104Z,44.56
2024-05-09T16:55:27.982Z,44.00
2024-05-09T16:57:55.506Z,44.93
2024-05-09T17:00:31.667Z,45.55
2024-05-09T17:03:07.215Z,45.09
2024-05-09T17:05:34.631Z,45.18
2024-05-09T17:08:01.615Z,45.41
2024-05-09T17:10:32.891Z,46.22
2024-05-09T17:13:01.834Z,45.64
2024-05-09T17:15:28.663Z,46.59
2024-05-09T17:17:55.863Z,47.71
2024-05-09T17:20:29.666Z,48.98
2024-05-09T17:23:01.610Z,48.63
2024-05-09T17:25:28.362Z,49.71
2024-05-09T17:27:55.272Z,49.66
2024-05-09T17:30:29.042Z,52.84
2024-05-09T17:33:02.156Z,55.01
2024-05-09T17:35:29.052Z,55.56
2024-05-09T17:37:55.850Z,55.15
2024-05-09T17:40:30.872Z,56.45
2024-05-09T17:43:01.624Z,59.36
2024-05-09T17:45:28.507Z,59.33
2024-05-09T17:47:55.314Z,60.49
2024-05-09T17:50:27.951Z,62.12
2024-05-09T17:53:03.229Z,64.74
2024-05-09T17:55:30.018Z,65.49
2024-05-09T17:57:56.974Z,66.09
2024-05-09T18:00:33.373Z,66.50
2024-05-09T18:03:06.243Z,68.72
2024-05-09T18:05:33.198Z,69.70
2024-05-09T18:08:07.067Z,70.14
2024-05-09T18:10:37.879Z,71.04
2024-05-09T18:13:07.573Z,71.46
2024-05-09T18:15:34.416Z,72.92
2024-05-09T18:18:02.388Z,74.37
2024-05-09T18:20:38.019Z,75.53
2024-05-09T18:23:10.632Z,75.88
2024-05-09T18:25:37.357Z,77.71
2024-05-09T18:28:04.501Z,77.95
2024-05-09T18:30:34.599Z,78.08
2024-05-09T18:33:03.446Z,78.99
2024-05-09T18:35:30.188Z,80.88
2024-05-09T18:37:56.818Z,81.28
2024-05-09T18:42:52.789Z,83.38
2024-05-09T18:45:19.348Z,84.19
2024-05-09T18:47:46.038Z,85.64
2024-05-09T18:50:17.725Z,87.08
2024-05-09T18:52:51.378Z,86.98
2024-05-09T18:55:17.947Z,89.02
2024-05-09T18:57:44.635Z,89.58
2024-05-09T19:00:22.704Z,90.84
2024-05-09T19:02:57.054Z,90.76
2024-05-09T19:05:23.825Z,94.22
2024-05-09T19:07:50.481Z,93.97
2024-05-09T19:10:22.577Z,93.68
2024-05-09T19:12:52.634Z,95.78
2024-05-09T19:15:19.138Z,96.15
2024-05-09T19:17:46.317Z,96.81
2024-05-09T19:20:24.683Z,100.00
2024-05-09T19:22:55.337Z,100.00
2024-05-09T19:25:21.874Z,100.00
2024-05-09T19:27:48.519Z,100.00
2024-05-09T19:30:24.955Z,100.00
2024-05-09T19:33:00.065Z,100.00
2024-05-09T19:35:26.619Z,100.00
2024-05-09T19:37:53.224Z,100.00
2024-05-09T19:40:28.517Z,100.00
2024-05-09T19:42:58.219Z,100.00
2024-05-09T19:45:24.861Z,100.00
2024-05-09T19:47:51.691Z,100.00
2024-05-09T19:50:26.637Z,100.00
2024-05-09T19:52:59.295Z,100.00
2024-05-09T19:55:25.865Z,100.00
2024-05-09T19:57:52.470Z,100.00
2024-05-09T20:00:26.012Z,100.00
2024-05-09T20:02:56.343Z,100.00
2024-05-09T20:05:23.542Z,100.00
2024-05-09T20:07:50.169Z,100.00
2024-05-09T20:10:23.637Z,100.00
2024-05-09T20:12:53.755Z,100.00
2024-05-09T20:15:20.393Z,100.00
2024-05-09T20:17:47.297Z,100.00
2024-05-09T20:20:24.509Z,100.00
2024-05-09T20:22:59.802Z,100.00
2024-05-09T20:25:26.434Z,100.00
2024-05-09T20:27:53.041Z,100.00
2024-05-09T20:30:28.963Z,100.00
2024-05-09T20:32:59.970Z,100.00
2024-05-09T20:35:26.835Z,100.00
2024-05-09T20:37:53.514Z,100.00
2024-05-09T20:40:28.318Z,100.00
2024-05-09T20:42:58.839Z,100.00
2024-05-09T20:45:25.533Z,100.00
2024-05-09T20:47:52.265Z,100.00
2024-05-09T20:50:27.996Z,100.00
2024-05-09T20:53:02.618Z,100.00
2024-05-09T20:55:30.027Z,100.00
2024-05-09T20:57:56.968Z,100.00
2024-05-09T21:00:30.272Z,100.00
2024-05-09T21:03:05.816Z,100.00
2024-05-09T21:05:32.951Z,100.00
2024-05-09T21:07:59.607Z,100.00
2024-05-09T21:10:27.268Z,100.00
2024-05-09T21:12:56.377Z,100.00
2024-05-09T21:15:22.978Z,100.00
2024-05-09T21:17:49.620Z,100.00
2024-05-09T21:20:20.466Z,100.00
2024-05-09T21:22:50.711Z,100.00
2024-05-09T21:25:17.268Z,100.00
2024-05-09T21:27:43.904Z,100.00
2024-05-09T21:30:16.046Z,100.00
2024-05-09T21:32:49.264Z,100.00
2024-05-09T21:35:17.435Z,100.00
2024-05-09T21:37:44.034Z,100.00
2024-05-09T21:40:13.993Z,100.00
2024-05-09T21:42:48.676Z,100.00
2024-05-09T21:45:15.256Z,100.00
2024-05-09T21:47:42.245Z,100.00
2024-05-09T21:50:12.505Z,100.00
2024-05-09T21:52:41.826Z,100.00
2024-05-09T21:55:08.653Z,100.00
2024-05-09T21:57:35.270Z,100.00
2024-05-09T22:00:01.821Z,100.00
2024-05-09T22:02:28.451Z,100.00
2024-05-09T22:04:55.265Z,100.00
2024-05-09T22:07:21.996Z,100.00
2024-05-09T22:09:48.992Z,100.00
2024-05-09T22:12:15.498Z,100.00
2024-05-09T22:14:42.005Z,100.00
2024-05-09T22:17:08.872Z,100.00
2024-05-09T22:19:35.663Z,100.00
2024-05-09T22:22:02.305Z,100.00
2024-05-09T22:24:28.813Z,100.00
2024-05-09T22:26:55.326Z,100.00
2024-05-09T22:29:21.811Z,100.00
2024-05-09T22:31:48.276Z,100.00
2024-05-09T22:34:14.982Z,100.00
2024-05-09T22:36:41.556Z,100.00
2024-05-09T22:39:08.065Z,100.00
2024-05-09T22:41:34.596Z,100.00
2024-05-09T22:44:02.327Z,100.00
2024-05-09T22:46:28.971Z,100.00
2024-05-09T22:48:55.691Z,100.00
2024-05-09T22:51:22.227Z,100.00
2024-05-09T22:53:48.710Z,100.00
2024-05-09T22:56:15.225Z,100.00
2024-05-09T22:58:41.726Z,100.00
2024-05-09T23:01:14.462Z,100.00
2024-05-09T23:03:41.242Z,100.00
2024-05-09T23:06:08.256Z,100.00
2024-05-09T23:08:34.767Z,100.00
2024-05-09T23:11:01.493Z,100.00
2024-05-09T23:13:28.106Z,100.00
2024-05-09T23:15:54.749Z,100.00
2024-05-09T23:18:21.351Z,100.00
2024-05-09T23:20:47.930Z,100.00
2024-05-09T23:23:14.464Z,100.00
2024-05-09T23:25:41.782Z,100.00
2024-05-09T23:28:08.940Z,100.00
2024-05-09T23:30:39.073Z,100.00
2024-05-09T23:33:09.311Z,100.00
2024-05-09T23:35:36.056Z,100.00
2024-05-09T23:38:02.766Z,100.00
2024-05-09T23:40:37.860Z,100.00
2024-05-09T23:43:08.186Z,100.00
2024-05-09T23:45:35.086Z,100.00
2024-05-09T23:48:02.584Z,100.00
2024-05-09T23:50:34.788Z,100.00
2024-05-09T23:53:04.777Z,100.00
2024-05-09T23:55:32.084Z,100.00
2024-05-09T23:57:59.181Z,100.00
